sensor_id;sensor_type;location;lat;lon;timestamp;temperature;humidity
70797;DHT22;59398;52.170;5.386;2022-09-09T00:04:34;21.10;62.60
70797;DHT22;59398;52.170;5.386;2022-09-09T00:07:15;21.10;62.60
70797;DHT22;59398;52.170;5.386;2022-09-09T00:09:54;21.10;62.60
70797;DHT22;59398;52.170;5.386;2022-09-09T00:15:20;21.10;62.60
70797;DHT22;59398;52.170;5.386;2022-09-09T00:18:23;21.10;62.50
70797;DHT22;59398;52.170;5.386;2022-09-09T00:21:06;21.10;62.60
70797;DHT22;59398;52.170;5.386;2022-09-09T00:23:39;21.10;62.60
70797;DHT22;59398;52.170;5.386;2022-09-09T00:26:26;21.10;62.60
70797;DHT22;59398;52.170;5.386;2022-09-09T00:31:39;21.00;62.50
70797;DHT22;59398;52.170;5.386;2022-09-09T00:34:21;21.10;62.60
70797;DHT22;59398;52.170;5.386;2022-09-09T00:36:50;21.10;62.50
70797;DHT22;59398;52.170;5.386;2022-09-09T00:39:36;21.10;62.50
70797;DHT22;59398;52.170;5.386;2022-09-09T00:42:15;21.00;62.50
70797;DHT22;59398;52.170;5.386;2022-09-09T00:45:02;21.00;62.40
70797;DHT22;59398;52.170;5.386;2022-09-09T00:58:08;21.00;62.40
70797;DHT22;59398;52.170;5.386;2022-09-09T01:00:48;21.00;62.30
70797;DHT22;59398;52.170;5.386;2022-09-09T01:03:36;21.00;62.30
70797;DHT22;59398;52.170;5.386;2022-09-09T01:12:07;20.90;62.30
70797;DHT22;59398;52.170;5.386;2022-09-09T01:19:59;20.90;62.40
70797;DHT22;59398;52.170;5.386;2022-09-09T01:28:40;20.90;62.30
70797;DHT22;59398;52.170;5.386;2022-09-09T01:31:17;20.80;62.20
70797;DHT22;59398;52.170;5.386;2022-09-09T01:33:47;20.80;62.30
70797;DHT22;59398;52.170;5.386;2022-09-09T01:38:52;20.80;62.20
70797;DHT22;59398;52.170;5.386;2022-09-09T01:41:20;20.80;62.20
70797;DHT22;59398;52.170;5.386;2022-09-09T01:44:13;20.80;62.10
70797;DHT22;59398;52.170;5.386;2022-09-09T01:46:44;20.80;62.20
70797;DHT22;59398;52.170;5.386;2022-09-09T01:49:16;20.80;62.10
70797;DHT22;59398;52.170;5.386;2022-09-09T01:51:44;20.80;62.10
70797;DHT22;59398;52.170;5.386;2022-09-09T01:54:13;20.80;62.20
70797;DHT22;59398;52.170;5.386;2022-09-09T02:08:20;20.80;62.10
70797;DHT22;59398;52.170;5.386;2022-09-09T02:13:46;20.70;62.10
70797;DHT22;59398;52.170;5.386;2022-09-09T02:16:37;20.70;62.10
70797;DHT22;59398;52.170;5.386;2022-09-09T02:19:25;20.70;62.00
70797;DHT22;59398;52.170;5.386;2022-09-09T02:22:00;20.70;62.00
70797;DHT22;59398;52.170;5.386;2022-09-09T02:24:32;20.70;61.90
70797;DHT22;59398;52.170;5.386;2022-09-09T02:27:11;20.70;61.90
70797;DHT22;59398;52.170;5.386;2022-09-09T02:29:41;20.70;61.90
70797;DHT22;59398;52.170;5.386;2022-09-09T02:32:15;20.70;61.90
70797;DHT22;59398;52.170;5.386;2022-09-09T02:34:50;20.70;62.90
70797;DHT22;59398;52.170;5.386;2022-09-09T02:37:20;20.70;61.80
70797;DHT22;59398;52.170;5.386;2022-09-09T02:39:52;20.70;61.80
70797;DHT22;59398;52.170;5.386;2022-09-09T02:42:21;20.70;61.70
70797;DHT22;59398;52.170;5.386;2022-09-09T02:44:55;20.70;61.70
70797;DHT22;59398;52.170;5.386;2022-09-09T02:48:05;20.70;61.70
70797;DHT22;59398;52.170;5.386;2022-09-09T02:50:34;20.70;61.70
70797;DHT22;59398;52.170;5.386;2022-09-09T02:53:16;20.70;61.70
70797;DHT22;59398;52.170;5.386;2022-09-09T02:55:48;20.60;61.60
70797;DHT22;59398;52.170;5.386;2022-09-09T02:58:19;20.70;61.60
70797;DHT22;59398;52.170;5.386;2022-09-09T03:00:57;20.60;61.60
70797;DHT22;59398;52.170;5.386;2022-09-09T03:03:26;20.60;61.60
70797;DHT22;59398;52.170;5.386;2022-09-09T03:05:54;20.60;61.60
70797;DHT22;59398;52.170;5.386;2022-09-09T03:08:21;20.60;61.60
70797;DHT22;59398;52.170;5.386;2022-09-09T03:10:48;20.60;61.50
70797;DHT22;59398;52.170;5.386;2022-09-09T03:13:16;20.60;61.50
70797;DHT22;59398;52.170;5.386;2022-09-09T03:15:43;20.60;61.60
70797;DHT22;59398;52.170;5.386;2022-09-09T03:18:14;20.50;61.50
70797;DHT22;59398;52.170;5.386;2022-09-09T03:20:42;20.50;61.50
70797;DHT22;59398;52.170;5.386;2022-09-09T03:23:10;20.50;61.50
70797;DHT22;59398;52.170;5.386;2022-09-09T03:25:49;20.50;61.50
70797;DHT22;59398;52.170;5.386;2022-09-09T03:28:24;20.60;61.60
70797;DHT22;59398;52.170;5.386;2022-09-09T03:31:03;20.50;61.50
70797;DHT22;59398;52.170;5.386;2022-09-09T03:33:34;20.50;61.50
70797;DHT22;59398;52.170;5.386;2022-09-09T03:36:05;20.50;61.50
70797;DHT22;59398;52.170;5.386;2022-09-09T03:38:38;20.50;61.40
70797;DHT22;59398;52.170;5.386;2022-09-09T03:41:07;20.50;61.50
70797;DHT22;59398;52.170;5.386;2022-09-09T03:43:35;20.50;61.40
70797;DHT22;59398;52.170;5.386;2022-09-09T03:46:02;20.50;61.40
70797;DHT22;59398;52.170;5.386;2022-09-09T03:48:29;20.50;61.40
70797;DHT22;59398;52.170;5.386;2022-09-09T03:50:58;20.50;61.50
70797;DHT22;59398;52.170;5.386;2022-09-09T03:53:29;20.50;61.40
70797;DHT22;59398;52.170;5.386;2022-09-09T03:55:57;20.50;61.40
70797;DHT22;59398;52.170;5.386;2022-09-09T03:58:27;20.40;61.30
70797;DHT22;59398;52.170;5.386;2022-09-09T04:01:05;20.40;61.30
70797;DHT22;59398;52.170;5.386;2022-09-09T04:03:33;20.40;61.30
70797;DHT22;59398;52.170;5.386;2022-09-09T04:06:01;20.40;61.30
70797;DHT22;59398;52.170;5.386;2022-09-09T04:08:31;20.40;61.30
70797;DHT22;59398;52.170;5.386;2022-09-09T04:10:59;20.40;61.30
70797;DHT22;59398;52.170;5.386;2022-09-09T04:13:34;20.40;61.30
70797;DHT22;59398;52.170;5.386;2022-09-09T04:16:03;20.40;61.40
70797;DHT22;59398;52.170;5.386;2022-09-09T04:18:32;20.40;61.30
70797;DHT22;59398;52.170;5.386;2022-09-09T04:21:02;20.40;61.40
70797;DHT22;59398;52.170;5.386;2022-09-09T04:23:31;20.40;61.30
70797;DHT22;59398;52.170;5.386;2022-09-09T04:26:01;20.40;61.30
70797;DHT22;59398;52.170;5.386;2022-09-09T04:28:32;20.40;61.30
70797;DHT22;59398;52.170;5.386;2022-09-09T04:31:09;20.30;61.20
70797;DHT22;59398;52.170;5.386;2022-09-09T04:33:39;20.30;61.20
70797;DHT22;59398;52.170;5.386;2022-09-09T04:36:08;20.30;61.30
70797;DHT22;59398;52.170;5.386;2022-09-09T04:38:35;20.30;61.30
70797;DHT22;59398;52.170;5.386;2022-09-09T04:41:03;20.30;61.30
70797;DHT22;59398;52.170;5.386;2022-09-09T04:43:32;20.30;61.30
70797;DHT22;59398;52.170;5.386;2022-09-09T04:46:01;20.30;61.40
70797;DHT22;59398;52.170;5.386;2022-09-09T04:48:30;20.30;61.40
70797;DHT22;59398;52.170;5.386;2022-09-09T04:51:03;20.30;61.50
70797;DHT22;59398;52.170;5.386;2022-09-09T04:53:33;20.30;61.50
70797;DHT22;59398;52.170;5.386;2022-09-09T04:56:05;20.30;61.50
70797;DHT22;59398;52.170;5.386;2022-09-09T04:58:37;20.30;61.50
70797;DHT22;59398;52.170;5.386;2022-09-09T05:01:16;20.30;61.60
70797;DHT22;59398;52.170;5.386;2022-09-09T05:03:48;20.30;61.60
70797;DHT22;59398;52.170;5.386;2022-09-09T05:06:21;20.30;61.60
70797;DHT22;59398;52.170;5.386;2022-09-09T05:08:53;20.20;61.60
70797;DHT22;59398;52.170;5.386;2022-09-09T05:11:31;20.20;61.60
70797;DHT22;59398;52.170;5.386;2022-09-09T05:14:08;20.20;61.60
70797;DHT22;59398;52.170;5.386;2022-09-09T05:16:35;20.20;61.60
70797;DHT22;59398;52.170;5.386;2022-09-09T05:19:02;20.20;61.60
70797;DHT22;59398;52.170;5.386;2022-09-09T05:21:41;20.20;61.70
70797;DHT22;59398;52.170;5.386;2022-09-09T05:24:08;20.20;61.70
70797;DHT22;59398;52.170;5.386;2022-09-09T05:26:35;20.20;61.70
70797;DHT22;59398;52.170;5.386;2022-09-09T05:29:02;20.20;61.70
70797;DHT22;59398;52.170;5.386;2022-09-09T05:31:30;20.20;61.90
70797;DHT22;59398;52.170;5.386;2022-09-09T05:34:02;20.20;61.80
70797;DHT22;59398;52.170;5.386;2022-09-09T05:36:29;20.20;61.80
70797;DHT22;59398;52.170;5.386;2022-09-09T05:38:56;20.10;61.80
70797;DHT22;59398;52.170;5.386;2022-09-09T05:41:25;20.20;61.90
70797;DHT22;59398;52.170;5.386;2022-09-09T05:43:55;20.10;61.80
70797;DHT22;59398;52.170;5.386;2022-09-09T05:46:24;20.10;61.80
70797;DHT22;59398;52.170;5.386;2022-09-09T05:48:53;20.20;61.80
70797;DHT22;59398;52.170;5.386;2022-09-09T05:51:29;20.20;61.90
70797;DHT22;59398;52.170;5.386;2022-09-09T05:54:05;20.10;61.80
70797;DHT22;59398;52.170;5.386;2022-09-09T05:56:36;20.10;61.90
70797;DHT22;59398;52.170;5.386;2022-09-09T05:59:06;20.10;62.00
70797;DHT22;59398;52.170;5.386;2022-09-09T06:01:36;20.10;62.00
70797;DHT22;59398;52.170;5.386;2022-09-09T06:04:09;20.10;62.10
70797;DHT22;59398;52.170;5.386;2022-09-09T06:06:38;20.10;62.10
70797;DHT22;59398;52.170;5.386;2022-09-09T06:09:11;20.10;62.20
70797;DHT22;59398;52.170;5.386;2022-09-09T06:11:41;20.10;62.20
70797;DHT22;59398;52.170;5.386;2022-09-09T06:14:09;20.10;62.30
70797;DHT22;59398;52.170;5.386;2022-09-09T06:16:37;20.10;62.40
70797;DHT22;59398;52.170;5.386;2022-09-09T06:19:14;20.10;62.40
70797;DHT22;59398;52.170;5.386;2022-09-09T06:21:41;20.00;62.50
70797;DHT22;59398;52.170;5.386;2022-09-09T06:24:11;20.10;62.60
70797;DHT22;59398;52.170;5.386;2022-09-09T06:26:40;20.10;62.80
70797;DHT22;59398;52.170;5.386;2022-09-09T06:29:10;20.10;62.90
70797;DHT22;59398;52.170;5.386;2022-09-09T06:31:39;20.00;62.90
70797;DHT22;59398;52.170;5.386;2022-09-09T06:34:12;20.00;63.00
70797;DHT22;59398;52.170;5.386;2022-09-09T06:36:43;20.00;63.20
70797;DHT22;59398;52.170;5.386;2022-09-09T06:39:12;20.00;63.20
70797;DHT22;59398;52.170;5.386;2022-09-09T06:41:41;20.00;63.40
70797;DHT22;59398;52.170;5.386;2022-09-09T06:44:29;20.00;64.80
70797;DHT22;59398;52.170;5.386;2022-09-09T06:47:05;20.00;63.80
70797;DHT22;59398;52.170;5.386;2022-09-09T06:49:33;20.00;64.00
70797;DHT22;59398;52.170;5.386;2022-09-09T06:52:01;20.00;64.20
70797;DHT22;59398;52.170;5.386;2022-09-09T06:54:29;20.00;64.40
70797;DHT22;59398;52.170;5.386;2022-09-09T06:56:56;20.00;64.50
70797;DHT22;59398;52.170;5.386;2022-09-09T06:59:24;20.00;64.70
70797;DHT22;59398;52.170;5.386;2022-09-09T07:01:53;20.00;64.80
70797;DHT22;59398;52.170;5.386;2022-09-09T07:04:22;20.00;64.80
70797;DHT22;59398;52.170;5.386;2022-09-09T07:06:50;20.00;65.00
70797;DHT22;59398;52.170;5.386;2022-09-09T07:09:24;20.00;65.20
70797;DHT22;59398;52.170;5.386;2022-09-09T07:11:53;20.00;65.20
70797;DHT22;59398;52.170;5.386;2022-09-09T07:14:23;20.00;65.30
70797;DHT22;59398;52.170;5.386;2022-09-09T07:17:02;20.00;65.50
70797;DHT22;59398;52.170;5.386;2022-09-09T07:19:34;20.00;65.50
70797;DHT22;59398;52.170;5.386;2022-09-09T07:22:03;20.00;65.60
70797;DHT22;59398;52.170;5.386;2022-09-09T07:24:31;20.00;65.80
70797;DHT22;59398;52.170;5.386;2022-09-09T07:26:58;20.00;66.90
70797;DHT22;59398;52.170;5.386;2022-09-09T07:29:26;20.00;65.90
70797;DHT22;59398;52.170;5.386;2022-09-09T07:31:53;20.00;66.00
70797;DHT22;59398;52.170;5.386;2022-09-09T07:34:28;20.00;66.00
70797;DHT22;59398;52.170;5.386;2022-09-09T07:36:57;20.00;66.10
70797;DHT22;59398;52.170;5.386;2022-09-09T07:39:24;20.00;66.10
70797;DHT22;59398;52.170;5.386;2022-09-09T07:41:53;20.00;66.00
70797;DHT22;59398;52.170;5.386;2022-09-09T07:44:23;20.00;66.20
70797;DHT22;59398;52.170;5.386;2022-09-09T07:47:17;20.00;66.00
70797;DHT22;59398;52.170;5.386;2022-09-09T07:49:47;20.00;66.20
70797;DHT22;59398;52.170;5.386;2022-09-09T07:52:21;20.00;66.40
70797;DHT22;59398;52.170;5.386;2022-09-09T07:54:53;20.00;66.60
70797;DHT22;59398;52.170;5.386;2022-09-09T07:57:20;20.00;66.80
70797;DHT22;59398;52.170;5.386;2022-09-09T07:59:50;20.00;67.00
70797;DHT22;59398;52.170;5.386;2022-09-09T08:02:17;20.00;67.00
70797;DHT22;59398;52.170;5.386;2022-09-09T08:04:44;20.00;67.00
70797;DHT22;59398;52.170;5.386;2022-09-09T08:07:13;20.00;67.10
70797;DHT22;59398;52.170;5.386;2022-09-09T08:09:47;20.10;67.10
70797;DHT22;59398;52.170;5.386;2022-09-09T08:12:27;20.00;67.10
70797;DHT22;59398;52.170;5.386;2022-09-09T08:14:55;20.00;67.10
70797;DHT22;59398;52.170;5.386;2022-09-09T08:17:25;20.10;67.20
70797;DHT22;59398;52.170;5.386;2022-09-09T08:19:52;20.10;67.20
70797;DHT22;59398;52.170;5.386;2022-09-09T08:22:24;20.10;67.20
70797;DHT22;59398;52.170;5.386;2022-09-09T08:24:51;20.00;67.20
70797;DHT22;59398;52.170;5.386;2022-09-09T08:27:19;20.00;67.20
70797;DHT22;59398;52.170;5.386;2022-09-09T08:29:46;20.10;67.20
70797;DHT22;59398;52.170;5.386;2022-09-09T08:32:13;20.10;67.30
70797;DHT22;59398;52.170;5.386;2022-09-09T08:34:44;20.00;67.20
70797;DHT22;59398;52.170;5.386;2022-09-09T08:37:18;20.10;67.20
70797;DHT22;59398;52.170;5.386;2022-09-09T08:39:49;20.10;67.10
70797;DHT22;59398;52.170;5.386;2022-09-09T08:42:40;20.00;67.10
70797;DHT22;59398;52.170;5.386;2022-09-09T08:45:26;20.10;67.10
70797;DHT22;59398;52.170;5.386;2022-09-09T08:48:22;20.00;67.00
70797;DHT22;59398;52.170;5.386;2022-09-09T08:50:53;20.00;67.00
70797;DHT22;59398;52.170;5.386;2022-09-09T08:53:42;20.00;67.00
70797;DHT22;59398;52.170;5.386;2022-09-09T08:56:21;20.10;67.20
70797;DHT22;59398;52.170;5.386;2022-09-09T08:58:54;20.00;67.20
70797;DHT22;59398;52.170;5.386;2022-09-09T09:01:49;20.00;68.30
70797;DHT22;59398;52.170;5.386;2022-09-09T09:13:34;20.00;67.20
70797;DHT22;59398;52.170;5.386;2022-09-09T09:18:49;20.00;67.30
70797;DHT22;59398;52.170;5.386;2022-09-09T09:24:00;20.00;67.00
70797;DHT22;59398;52.170;5.386;2022-09-09T09:26:34;20.00;67.20
70797;DHT22;59398;52.170;5.386;2022-09-09T09:29:12;20.00;67.20
70797;DHT22;59398;52.170;5.386;2022-09-09T09:32:02;20.00;67.10
70797;DHT22;59398;52.170;5.386;2022-09-09T09:34:27;20.00;67.00
70797;DHT22;59398;52.170;5.386;2022-09-09T09:36:57;20.00;67.00
70797;DHT22;59398;52.170;5.386;2022-09-09T09:39:33;20.00;67.20
70797;DHT22;59398;52.170;5.386;2022-09-09T09:42:25;20.00;67.20
70797;DHT22;59398;52.170;5.386;2022-09-09T09:44:55;20.00;67.20
70797;DHT22;59398;52.170;5.386;2022-09-09T09:47:25;20.00;67.20
70797;DHT22;59398;52.170;5.386;2022-09-09T09:50:18;20.00;67.20
70797;DHT22;59398;52.170;5.386;2022-09-09T09:52:55;20.00;67.20
70797;DHT22;59398;52.170;5.386;2022-09-09T09:55:25;20.00;67.20
70797;DHT22;59398;52.170;5.386;2022-09-09T09:57:52;20.00;67.20
70797;DHT22;59398;52.170;5.386;2022-09-09T10:00:22;20.00;67.20
70797;DHT22;59398;52.170;5.386;2022-09-09T10:03:01;20.00;67.30
70797;DHT22;59398;52.170;5.386;2022-09-09T10:05:35;20.00;67.40
70797;DHT22;59398;52.170;5.386;2022-09-09T10:08:13;20.00;67.60
70797;DHT22;59398;52.170;5.386;2022-09-09T10:13:40;20.00;67.80
70797;DHT22;59398;52.170;5.386;2022-09-09T10:16:32;20.00;67.80
70797;DHT22;59398;52.170;5.386;2022-09-09T10:19:10;20.00;67.90
70797;DHT22;59398;52.170;5.386;2022-09-09T10:33:25;20.00;68.10
70797;DHT22;59398;52.170;5.386;2022-09-09T10:36:12;20.00;68.00
70797;DHT22;59398;52.170;5.386;2022-09-09T10:38:41;20.00;68.50
70797;DHT22;59398;52.170;5.386;2022-09-09T10:44:51;19.90;68.40
70797;DHT22;59398;52.170;5.386;2022-09-09T10:50:40;19.90;68.70
70797;DHT22;59398;52.170;5.386;2022-09-09T10:53:35;19.90;68.90
70797;DHT22;59398;52.170;5.386;2022-09-09T10:56:09;19.90;69.00
70797;DHT22;59398;52.170;5.386;2022-09-09T10:59:02;19.90;69.10
70797;DHT22;59398;52.170;5.386;2022-09-09T11:01:40;19.90;69.20
70797;DHT22;59398;52.170;5.386;2022-09-09T11:04:28;19.90;69.20
70797;DHT22;59398;52.170;5.386;2022-09-09T11:07:05;19.90;69.30
70797;DHT22;59398;52.170;5.386;2022-09-09T11:09:50;19.90;69.30
70797;DHT22;59398;52.170;5.386;2022-09-09T11:12:19;19.90;69.60
70797;DHT22;59398;52.170;5.386;2022-09-09T11:14:55;20.00;69.60
70797;DHT22;59398;52.170;5.386;2022-09-09T11:17:33;20.00;69.90
70797;DHT22;59398;52.170;5.386;2022-09-09T11:20:05;20.00;69.90
70797;DHT22;59398;52.170;5.386;2022-09-09T11:25:21;20.00;70.20
70797;DHT22;59398;52.170;5.386;2022-09-09T11:39:35;20.10;70.00
70797;DHT22;59398;52.170;5.386;2022-09-09T11:41:39;20.10;70.10
70797;DHT22;59398;52.170;5.386;2022-09-09T11:44:24;20.10;70.00
70797;DHT22;59398;52.170;5.386;2022-09-09T11:46:53;20.10;70.00
70797;DHT22;59398;52.170;5.386;2022-09-09T11:49:41;20.10;69.90
70797;DHT22;59398;52.170;5.386;2022-09-09T11:52:34;20.10;70.00
70797;DHT22;59398;52.170;5.386;2022-09-09T11:55:27;20.10;69.90
70797;DHT22;59398;52.170;5.386;2022-09-09T11:58:14;20.10;70.00
70797;DHT22;59398;52.170;5.386;2022-09-09T12:00:45;20.10;69.90
70797;DHT22;59398;52.170;5.386;2022-09-09T12:03:50;20.10;70.00
70797;DHT22;59398;52.170;5.386;2022-09-09T12:06:27;20.10;71.30
70797;DHT22;59398;52.170;5.386;2022-09-09T12:08:58;20.10;70.30
70797;DHT22;59398;52.170;5.386;2022-09-09T12:11:33;20.10;70.30
70797;DHT22;59398;52.170;5.386;2022-09-09T12:14:00;20.10;70.30
70797;DHT22;59398;52.170;5.386;2022-09-09T12:16:35;20.10;70.40
70797;DHT22;59398;52.170;5.386;2022-09-09T12:21:58;20.10;70.60
70797;DHT22;59398;52.170;5.386;2022-09-09T12:24:54;20.20;70.70
70797;DHT22;59398;52.170;5.386;2022-09-09T12:27:29;20.10;70.60
70797;DHT22;59398;52.170;5.386;2022-09-09T12:30:07;20.20;70.70
70797;DHT22;59398;52.170;5.386;2022-09-09T12:32:36;20.20;70.70
70797;DHT22;59398;52.170;5.386;2022-09-09T12:35:22;20.20;70.70
70797;DHT22;59398;52.170;5.386;2022-09-09T12:37:54;20.20;70.80
70797;DHT22;59398;52.170;5.386;2022-09-09T12:42:57;20.20;70.90
70797;DHT22;59398;52.170;5.386;2022-09-09T12:45:31;20.20;70.90
70797;DHT22;59398;52.170;5.386;2022-09-09T12:48:06;20.20;71.00
70797;DHT22;59398;52.170;5.386;2022-09-09T12:50:38;20.20;71.10
70797;DHT22;59398;52.170;5.386;2022-09-09T12:53:16;20.20;71.10
70797;DHT22;59398;52.170;5.386;2022-09-09T12:55:58;20.30;71.20
70797;DHT22;59398;52.170;5.386;2022-09-09T12:58:26;20.20;71.20
70797;DHT22;59398;52.170;5.386;2022-09-09T13:00:56;20.30;71.20
70797;DHT22;59398;52.170;5.386;2022-09-09T13:03:24;20.30;71.20
70797;DHT22;59398;52.170;5.386;2022-09-09T13:06:13;20.30;71.20
70797;DHT22;59398;52.170;5.386;2022-09-09T13:08:40;20.30;71.30
70797;DHT22;59398;52.170;5.386;2022-09-09T13:11:13;20.30;71.20
70797;DHT22;59398;52.170;5.386;2022-09-09T13:13:43;20.30;71.40
70797;DHT22;59398;52.170;5.386;2022-09-09T13:18:48;20.30;71.40
70797;DHT22;59398;52.170;5.386;2022-09-09T13:21:16;20.30;71.30
70797;DHT22;59398;52.170;5.386;2022-09-09T13:23:48;20.30;71.30
70797;DHT22;59398;52.170;5.386;2022-09-09T13:26:22;20.40;71.30
70797;DHT22;59398;52.170;5.386;2022-09-09T13:28:54;20.30;71.10
70797;DHT22;59398;52.170;5.386;2022-09-09T13:31:29;20.30;71.00
70797;DHT22;59398;52.170;5.386;2022-09-09T13:33:56;20.40;71.10
70797;DHT22;59398;52.170;5.386;2022-09-09T13:36:32;20.40;71.00
70797;DHT22;59398;52.170;5.386;2022-09-09T13:39:01;20.40;70.90
70797;DHT22;59398;52.170;5.386;2022-09-09T13:41:35;20.40;70.80
70797;DHT22;59398;52.170;5.386;2022-09-09T13:44:03;20.40;70.90
70797;DHT22;59398;52.170;5.386;2022-09-09T13:46:35;20.40;70.80
70797;DHT22;59398;52.170;5.386;2022-09-09T13:49:20;20.40;70.80
70797;DHT22;59398;52.170;5.386;2022-09-09T13:52:02;20.40;70.90
70797;DHT22;59398;52.170;5.386;2022-09-09T13:54:29;20.40;72.00
70797;DHT22;59398;52.170;5.386;2022-09-09T13:56:57;20.40;70.90
70797;DHT22;59398;52.170;5.386;2022-09-09T13:59:24;20.40;70.80
70797;DHT22;59398;52.170;5.386;2022-09-09T14:02:13;20.40;70.70
70797;DHT22;59398;52.170;5.386;2022-09-09T14:04:43;20.40;70.60
70797;DHT22;59398;52.170;5.386;2022-09-09T14:07:15;20.40;70.60
70797;DHT22;59398;52.170;5.386;2022-09-09T14:09:42;20.40;70.60
70797;DHT22;59398;52.170;5.386;2022-09-09T14:12:11;20.40;70.50
70797;DHT22;59398;52.170;5.386;2022-09-09T14:14:38;20.50;70.50
70797;DHT22;59398;52.170;5.386;2022-09-09T14:17:05;20.40;70.30
70797;DHT22;59398;52.170;5.386;2022-09-09T14:19:34;20.40;70.40
70797;DHT22;59398;52.170;5.386;2022-09-09T14:22:00;20.40;70.50
70797;DHT22;59398;52.170;5.386;2022-09-09T14:24:27;20.40;70.50
70797;DHT22;59398;52.170;5.386;2022-09-09T14:26:55;20.40;70.60
70797;DHT22;59398;52.170;5.386;2022-09-09T14:29:22;20.50;70.70
70797;DHT22;59398;52.170;5.386;2022-09-09T14:31:49;20.40;70.60
70797;DHT22;59398;52.170;5.386;2022-09-09T14:34:15;20.50;70.70
70797;DHT22;59398;52.170;5.386;2022-09-09T14:36:42;20.50;70.70
70797;DHT22;59398;52.170;5.386;2022-09-09T14:39:19;20.50;70.70
70797;DHT22;59398;52.170;5.386;2022-09-09T14:41:46;20.50;70.90
70797;DHT22;59398;52.170;5.386;2022-09-09T14:44:17;20.50;70.90
70797;DHT22;59398;52.170;5.386;2022-09-09T14:46:45;20.50;71.00
70797;DHT22;59398;52.170;5.386;2022-09-09T14:49:12;20.50;71.00
70797;DHT22;59398;52.170;5.386;2022-09-09T14:51:39;20.50;71.00
70797;DHT22;59398;52.170;5.386;2022-09-09T14:54:06;20.50;71.10
70797;DHT22;59398;52.170;5.386;2022-09-09T14:56:34;20.50;70.90
70797;DHT22;59398;52.170;5.386;2022-09-09T14:59:04;20.50;71.00
70797;DHT22;59398;52.170;5.386;2022-09-09T15:01:31;20.50;71.10
70797;DHT22;59398;52.170;5.386;2022-09-09T15:04:00;20.60;71.20
70797;DHT22;59398;52.170;5.386;2022-09-09T15:06:30;20.50;71.20
70797;DHT22;59398;52.170;5.386;2022-09-09T15:09:00;20.50;71.30
70797;DHT22;59398;52.170;5.386;2022-09-09T15:11:29;20.50;71.50
70797;DHT22;59398;52.170;5.386;2022-09-09T15:13:57;20.60;71.80
70797;DHT22;59398;52.170;5.386;2022-09-09T15:16:27;20.50;71.70
70797;DHT22;59398;52.170;5.386;2022-09-09T15:18:56;20.60;71.90
70797;DHT22;59398;52.170;5.386;2022-09-09T15:21:27;20.60;71.90
70797;DHT22;59398;52.170;5.386;2022-09-09T15:23:55;20.60;72.00
70797;DHT22;59398;52.170;5.386;2022-09-09T15:26:23;20.60;71.90
70797;DHT22;59398;52.170;5.386;2022-09-09T15:28:50;20.60;71.80
70797;DHT22;59398;52.170;5.386;2022-09-09T15:31:19;20.60;71.70
70797;DHT22;59398;52.170;5.386;2022-09-09T15:33:52;20.60;71.60
70797;DHT22;59398;52.170;5.386;2022-09-09T15:36:24;20.60;71.70
70797;DHT22;59398;52.170;5.386;2022-09-09T15:38:52;20.50;71.50
70797;DHT22;59398;52.170;5.386;2022-09-09T15:41:21;20.60;71.50
70797;DHT22;59398;52.170;5.386;2022-09-09T15:43:50;20.60;71.40
70797;DHT22;59398;52.170;5.386;2022-09-09T15:48:44;20.50;71.20
70797;DHT22;59398;52.170;5.386;2022-09-09T15:51:14;20.60;71.20
70797;DHT22;59398;52.170;5.386;2022-09-09T15:54:01;20.60;71.20
70797;DHT22;59398;52.170;5.386;2022-09-09T15:56:31;20.60;71.10
70797;DHT22;59398;52.170;5.386;2022-09-09T15:59:00;20.60;71.10
70797;DHT22;59398;52.170;5.386;2022-09-09T16:01:29;20.60;71.20
70797;DHT22;59398;52.170;5.386;2022-09-09T16:03:58;20.60;71.00
70797;DHT22;59398;52.170;5.386;2022-09-09T16:06:27;20.60;71.10
70797;DHT22;59398;52.170;5.386;2022-09-09T16:08:57;20.60;71.00
70797;DHT22;59398;52.170;5.386;2022-09-09T16:11:26;20.60;71.10
70797;DHT22;59398;52.170;5.386;2022-09-09T16:13:54;20.60;71.00
70797;DHT22;59398;52.170;5.386;2022-09-09T16:16:24;20.60;71.00
70797;DHT22;59398;52.170;5.386;2022-09-09T16:18:54;20.60;71.00
70797;DHT22;59398;52.170;5.386;2022-09-09T16:21:29;20.60;70.90
70797;DHT22;59398;52.170;5.386;2022-09-09T16:23:58;20.60;70.80
70797;DHT22;59398;52.170;5.386;2022-09-09T16:26:30;20.60;70.70
70797;DHT22;59398;52.170;5.386;2022-09-09T16:28:58;20.60;70.60
70797;DHT22;59398;52.170;5.386;2022-09-09T16:31:27;20.60;70.60
70797;DHT22;59398;52.170;5.386;2022-09-09T16:33:54;20.60;70.50
70797;DHT22;59398;52.170;5.386;2022-09-09T16:36:23;20.50;70.40
70797;DHT22;59398;52.170;5.386;2022-09-09T16:38:55;20.60;70.40
70797;DHT22;59398;52.170;5.386;2022-09-09T16:41:28;20.60;70.40
70797;DHT22;59398;52.170;5.386;2022-09-09T16:43:57;20.50;70.30
70797;DHT22;59398;52.170;5.386;2022-09-09T16:46:27;20.50;70.20
70797;DHT22;59398;52.170;5.386;2022-09-09T16:48:58;20.60;70.30
70797;DHT22;59398;52.170;5.386;2022-09-09T16:51:32;20.60;70.30
70797;DHT22;59398;52.170;5.386;2022-09-09T16:54:00;20.50;70.20
70797;DHT22;59398;52.170;5.386;2022-09-09T16:56:31;20.60;70.20
70797;DHT22;59398;52.170;5.386;2022-09-09T16:59:01;20.60;70.20
70797;DHT22;59398;52.170;5.386;2022-09-09T17:01:30;20.60;70.20
70797;DHT22;59398;52.170;5.386;2022-09-09T17:04:03;20.60;70.10
70797;DHT22;59398;52.170;5.386;2022-09-09T17:06:32;20.60;70.10
70797;DHT22;59398;52.170;5.386;2022-09-09T17:09:08;20.60;70.00
70797;DHT22;59398;52.170;5.386;2022-09-09T17:11:39;20.60;70.00
70797;DHT22;59398;52.170;5.386;2022-09-09T17:14:07;20.50;69.80
70797;DHT22;59398;52.170;5.386;2022-09-09T17:16:36;20.50;69.80
70797;DHT22;59398;52.170;5.386;2022-09-09T17:19:03;20.50;69.70
70797;DHT22;59398;52.170;5.386;2022-09-09T17:21:32;20.40;69.90
70797;DHT22;59398;52.170;5.386;2022-09-09T17:24:00;20.40;70.10
70797;DHT22;59398;52.170;5.386;2022-09-09T17:26:29;20.30;70.20
70797;DHT22;59398;52.170;5.386;2022-09-09T17:28:57;20.40;70.40
70797;DHT22;59398;52.170;5.386;2022-09-09T17:31:26;20.30;70.40
70797;DHT22;59398;52.170;5.386;2022-09-09T17:33:54;20.40;70.40
70797;DHT22;59398;52.170;5.386;2022-09-09T17:36:25;20.40;70.40
70797;DHT22;59398;52.170;5.386;2022-09-09T17:38:53;20.40;70.50
70797;DHT22;59398;52.170;5.386;2022-09-09T17:41:26;20.40;70.40
70797;DHT22;59398;52.170;5.386;2022-09-09T17:43:54;20.40;70.40
70797;DHT22;59398;52.170;5.386;2022-09-09T17:46:28;20.50;70.40
70797;DHT22;59398;52.170;5.386;2022-09-09T17:48:58;20.50;70.30
70797;DHT22;59398;52.170;5.386;2022-09-09T17:51:30;20.50;70.30
70797;DHT22;59398;52.170;5.386;2022-09-09T17:54:00;20.50;70.30
70797;DHT22;59398;52.170;5.386;2022-09-09T17:56:30;20.50;70.30
70797;DHT22;59398;52.170;5.386;2022-09-09T17:58:58;20.50;70.20